sensor_id;sensor_type;location;lat;lon;timestamp;temperature;humidity
13389;DHT22;6764;53.250;10.410;2022-08-19T00:00:45;21.40;99.90
13389;DHT22;6764;53.250;10.410;2022-08-19T00:03:11;21.40;99.90
13389;DHT22;6764;53.250;10.410;2022-08-19T00:05:36;21.40;99.90
13389;DHT22;6764;53.250;10.410;2022-08-19T00:08:02;21.30;99.90
13389;DHT22;6764;53.250;10.410;2022-08-19T00:10:28;21.30;99.90
13389;DHT22;6764;53.250;10.410;2022-08-19T00:12:54;21.30;99.90
13389;DHT22;6764;53.250;10.410;2022-08-19T00:15:20;21.20;99.90
13389;DHT22;6764;53.250;10.410;2022-08-19T00:17:46;21.20;99.90
13389;DHT22;6764;53.250;10.410;2022-08-19T00:20:15;21.20;99.90
13389;DHT22;6764;53.250;10.410;2022-08-19T00:22:43;21.20;99.90
13389;DHT22;6764;53.250;10.410;2022-08-19T00:25:09;21.20;99.90
13389;DHT22;6764;53.250;10.410;2022-08-19T00:27:35;21.20;99.90
13389;DHT22;6764;53.250;10.410;2022-08-19T00:30:01;21.10;99.90
13389;DHT22;6764;53.250;10.410;2022-08-19T00:32:29;21.10;99.90
13389;DHT22;6764;53.250;10.410;2022-08-19T00:34:54;21.10;99.90
13389;DHT22;6764;53.250;10.410;2022-08-19T00:37:22;21.00;99.90
13389;DHT22;6764;53.250;10.410;2022-08-19T00:39:48;21.00;99.90
13389;DHT22;6764;53.250;10.410;2022-08-19T00:42:14;20.90;99.90
13389;DHT22;6764;53.250;10.410;2022-08-19T00:44:41;20.90;99.90
13389;DHT22;6764;53.250;10.410;2022-08-19T00:47:06;20.90;99.90
13389;DHT22;6764;53.250;10.410;2022-08-19T00:49:36;20.90;99.90
13389;DHT22;6764;53.250;10.410;2022-08-19T00:52:16;20.90;99.90
13389;DHT22;6764;53.250;10.410;2022-08-19T00:54:44;20.90;99.90
13389;DHT22;6764;53.250;10.410;2022-08-19T00:57:22;21.00;99.90
13389;DHT22;6764;53.250;10.410;2022-08-19T00:59:52;21.00;99.90
13389;DHT22;6764;53.250;10.410;2022-08-19T01:02:18;21.00;99.90
13389;DHT22;6764;53.250;10.410;2022-08-19T01:04:43;21.00;99.90
13389;DHT22;6764;53.250;10.410;2022-08-19T01:07:09;21.00;99.90
13389;DHT22;6764;53.250;10.410;2022-08-19T01:09:35;21.00;99.90
13389;DHT22;6764;53.250;10.410;2022-08-19T01:12:02;21.00;99.90
13389;DHT22;6764;53.250;10.410;2022-08-19T01:14:29;21.00;99.90
13389;DHT22;6764;53.250;10.410;2022-08-19T01:16:55;21.00;99.90
13389;DHT22;6764;53.250;10.410;2022-08-19T01:19:29;20.90;99.90
13389;DHT22;6764;53.250;10.410;2022-08-19T01:22:06;20.90;99.90
13389;DHT22;6764;53.250;10.410;2022-08-19T01:24:34;20.90;99.90
13389;DHT22;6764;53.250;10.410;2022-08-19T01:27:00;21.00;99.90
13389;DHT22;6764;53.250;10.410;2022-08-19T01:29:29;20.90;99.90
13389;DHT22;6764;53.250;10.410;2022-08-19T01:31:54;20.90;99.90
13389;DHT22;6764;53.250;10.410;2022-08-19T01:34:20;20.90;99.90
13389;DHT22;6764;53.250;10.410;2022-08-19T01:36:47;20.80;99.90
13389;DHT22;6764;53.250;10.410;2022-08-19T01:39:18;20.90;99.90
13389;DHT22;6764;53.250;10.410;2022-08-19T01:41:44;20.80;99.90
13389;DHT22;6764;53.250;10.410;2022-08-19T01:44:10;20.80;99.90
13389;DHT22;6764;53.250;10.410;2022-08-19T01:46:36;20.80;99.90
13389;DHT22;6764;53.250;10.410;2022-08-19T01:49:03;20.80;99.90
13389;DHT22;6764;53.250;10.410;2022-08-19T01:51:29;20.70;99.90
13389;DHT22;6764;53.250;10.410;2022-08-19T01:53:56;20.70;99.90
13389;DHT22;6764;53.250;10.410;2022-08-19T01:56:23;20.70;99.90
13389;DHT22;6764;53.250;10.410;2022-08-19T01:58:53;20.70;99.90
13389;DHT22;6764;53.250;10.410;2022-08-19T02:01:19;20.70;99.90
13389;DHT22;6764;53.250;10.410;2022-08-19T02:03:45;20.70;99.90
13389;DHT22;6764;53.250;10.410;2022-08-19T02:06:11;20.70;99.90
13389;DHT22;6764;53.250;10.410;2022-08-19T02:08:38;20.60;99.90
13389;DHT22;6764;53.250;10.410;2022-08-19T02:11:05;20.60;99.90
13389;DHT22;6764;53.250;10.410;2022-08-19T02:13:32;20.50;99.90
13389;DHT22;6764;53.250;10.410;2022-08-19T02:15:58;20.50;99.90
13389;DHT22;6764;53.250;10.410;2022-08-19T02:18:23;20.50;99.90
13389;DHT22;6764;53.250;10.410;2022-08-19T02:20:49;20.40;99.90
13389;DHT22;6764;53.250;10.410;2022-08-19T02:23:16;20.40;99.90
13389;DHT22;6764;53.250;10.410;2022-08-19T02:25:44;20.40;99.90
13389;DHT22;6764;53.250;10.410;2022-08-19T02:28:10;20.40;99.90
13389;DHT22;6764;53.250;10.410;2022-08-19T02:30:37;20.40;99.90
13389;DHT22;6764;53.250;10.410;2022-08-19T02:33:03;20.30;99.90
13389;DHT22;6764;53.250;10.410;2022-08-19T02:35:30;20.30;99.90
13389;DHT22;6764;53.250;10.410;2022-08-19T02:37:56;20.30;99.90
13389;DHT22;6764;53.250;10.410;2022-08-19T02:40:40;20.30;99.90
13389;DHT22;6764;53.250;10.410;2022-08-19T02:43:08;20.30;99.90
13389;DHT22;6764;53.250;10.410;2022-08-19T02:45:38;20.30;99.90
13389;DHT22;6764;53.250;10.410;2022-08-19T02:48:04;20.30;99.90
13389;DHT22;6764;53.250;10.410;2022-08-19T02:50:31;20.30;99.90
13389;DHT22;6764;53.250;10.410;2022-08-19T02:52:56;20.30;99.90
13389;DHT22;6764;53.250;10.410;2022-08-19T02:55:23;20.30;99.90
13389;DHT22;6764;53.250;10.410;2022-08-19T02:57:48;20.30;99.90
13389;DHT22;6764;53.250;10.410;2022-08-19T03:00:14;20.30;99.90
13389;DHT22;6764;53.250;10.410;2022-08-19T03:02:40;20.20;99.90
13389;DHT22;6764;53.250;10.410;2022-08-19T03:05:08;20.30;99.90
13389;DHT22;6764;53.250;10.410;2022-08-19T03:07:37;20.20;99.90
13389;DHT22;6764;53.250;10.410;2022-08-19T03:10:03;20.20;99.90
13389;DHT22;6764;53.250;10.410;2022-08-19T03:12:29;20.20;99.90
13389;DHT22;6764;53.250;10.410;2022-08-19T03:14:55;20.20;99.90
13389;DHT22;6764;53.250;10.410;2022-08-19T03:17:21;20.30;99.90
13389;DHT22;6764;53.250;10.410;2022-08-19T03:19:46;20.30;99.90
13389;DHT22;6764;53.250;10.410;2022-08-19T03:22:12;20.40;99.90
13389;DHT22;6764;53.250;10.410;2022-08-19T03:24:38;20.40;99.90
13389;DHT22;6764;53.250;10.410;2022-08-19T03:27:04;20.50;99.90
13389;DHT22;6764;53.250;10.410;2022-08-19T03:29:31;20.50;99.90
13389;DHT22;6764;53.250;10.410;2022-08-19T03:31:59;20.50;99.90
13389;DHT22;6764;53.250;10.410;2022-08-19T03:34:29;20.50;99.90
13389;DHT22;6764;53.250;10.410;2022-08-19T03:36:56;20.50;99.90
13389;DHT22;6764;53.250;10.410;2022-08-19T03:39:24;20.50;99.90
13389;DHT22;6764;53.250;10.410;2022-08-19T03:41:51;20.50;99.90
13389;DHT22;6764;53.250;10.410;2022-08-19T03:44:19;20.50;99.90
13389;DHT22;6764;53.250;10.410;2022-08-19T03:46:56;20.50;99.90
13389;DHT22;6764;53.250;10.410;2022-08-19T03:49:24;20.50;99.90
13389;DHT22;6764;53.250;10.410;2022-08-19T03:51:50;20.60;99.90
13389;DHT22;6764;53.250;10.410;2022-08-19T03:54:19;20.60;99.90
13389;DHT22;6764;53.250;10.410;2022-08-19T03:56:47;20.60;99.90
13389;DHT22;6764;53.250;10.410;2022-08-19T03:59:17;20.60;99.90
13389;DHT22;6764;53.250;10.410;2022-08-19T04:01:43;20.70;99.90
13389;DHT22;6764;53.250;10.410;2022-08-19T04:04:09;20.70;99.90
13389;DHT22;6764;53.250;10.410;2022-08-19T04:06:37;20.70;99.90
13389;DHT22;6764;53.250;10.410;2022-08-19T04:09:05;20.60;99.90
13389;DHT22;6764;53.250;10.410;2022-08-19T04:11:35;20.70;99.90
13389;DHT22;6764;53.250;10.410;2022-08-19T04:14:01;20.60;99.90
13389;DHT22;6764;53.250;10.410;2022-08-19T04:16:28;20.60;99.90
13389;DHT22;6764;53.250;10.410;2022-08-19T04:18:59;20.60;99.90
13389;DHT22;6764;53.250;10.410;2022-08-19T04:21:26;20.60;99.90
13389;DHT22;6764;53.250;10.410;2022-08-19T04:23:52;20.50;99.90
13389;DHT22;6764;53.250;10.410;2022-08-19T04:26:21;20.50;99.90
13389;DHT22;6764;53.250;10.410;2022-08-19T04:28:47;20.50;99.90
13389;DHT22;6764;53.250;10.410;2022-08-19T04:31:20;20.50;99.90
13389;DHT22;6764;53.250;10.410;2022-08-19T04:33:46;20.50;99.90
13389;DHT22;6764;53.250;10.410;2022-08-19T04:36:17;20.50;99.90
13389;DHT22;6764;53.250;10.410;2022-08-19T04:38:46;20.50;99.90
13389;DHT22;6764;53.250;10.410;2022-08-19T04:41:12;20.50;99.90
13389;DHT22;6764;53.250;10.410;2022-08-19T04:43:56;20.50;99.90
13389;DHT22;6764;53.250;10.410;2022-08-19T04:46:22;20.50;99.90
13389;DHT22;6764;53.250;10.410;2022-08-19T04:48:48;20.50;99.90
13389;DHT22;6764;53.250;10.410;2022-08-19T04:51:13;20.50;99.90
13389;DHT22;6764;53.250;10.410;2022-08-19T04:53:41;20.60;99.90
13389;DHT22;6764;53.250;10.410;2022-08-19T04:56:08;20.60;99.90
13389;DHT22;6764;53.250;10.410;2022-08-19T04:58:35;20.60;99.90
13389;DHT22;6764;53.250;10.410;2022-08-19T05:01:01;20.60;99.90
13389;DHT22;6764;53.250;10.410;2022-08-19T05:03:27;20.60;99.90
13389;DHT22;6764;53.250;10.410;2022-08-19T05:06:06;20.60;99.90
13389;DHT22;6764;53.250;10.410;2022-08-19T05:08:34;20.60;99.90
13389;DHT22;6764;53.250;10.410;2022-08-19T05:11:00;20.60;99.90
13389;DHT22;6764;53.250;10.410;2022-08-19T05:13:26;20.70;99.90
13389;DHT22;6764;53.250;10.410;2022-08-19T05:15:57;20.70;99.90
13389;DHT22;6764;53.250;10.410;2022-08-19T05:18:23;20.70;99.90
13389;DHT22;6764;53.250;10.410;2022-08-19T05:21:11;20.70;99.90
13389;DHT22;6764;53.250;10.410;2022-08-19T05:23:56;20.70;99.90
13389;DHT22;6764;53.250;10.410;2022-08-19T05:26:23;20.70;99.90
13389;DHT22;6764;53.250;10.410;2022-08-19T05:28:51;20.70;99.90
13389;DHT22;6764;53.250;10.410;2022-08-19T05:31:17;20.80;99.90
13389;DHT22;6764;53.250;10.410;2022-08-19T05:33:42;20.80;99.90
13389;DHT22;6764;53.250;10.410;2022-08-19T05:36:08;20.80;99.90
13389;DHT22;6764;53.250;10.410;2022-08-19T05:38:34;20.80;99.90
13389;DHT22;6764;53.250;10.410;2022-08-19T05:41:08;20.80;99.90
13389;DHT22;6764;53.250;10.410;2022-08-19T05:43:34;20.80;99.90
13389;DHT22;6764;53.250;10.410;2022-08-19T05:45:59;20.80;99.90
13389;DHT22;6764;53.250;10.410;2022-08-19T05:48:25;20.90;99.90
13389;DHT22;6764;53.250;10.410;2022-08-19T05:50:51;20.90;99.90
13389;DHT22;6764;53.250;10.410;2022-08-19T05:53:17;20.90;99.90
13389;DHT22;6764;53.250;10.410;2022-08-19T05:55:43;20.90;99.90
13389;DHT22;6764;53.250;10.410;2022-08-19T05:58:09;20.90;99.90
13389;DHT22;6764;53.250;10.410;2022-08-19T06:00:36;20.90;99.90
13389;DHT22;6764;53.250;10.410;2022-08-19T06:03:02;20.90;99.90
13389;DHT22;6764;53.250;10.410;2022-08-19T06:05:30;20.90;99.90
13389;DHT22;6764;53.250;10.410;2022-08-19T06:07:56;20.90;99.90
13389;DHT22;6764;53.250;10.410;2022-08-19T06:10:21;20.90;99.90
13389;DHT22;6764;53.250;10.410;2022-08-19T06:12:48;20.90;99.90
13389;DHT22;6764;53.250;10.410;2022-08-19T06:15:14;21.00;99.90
13389;DHT22;6764;53.250;10.410;2022-08-19T06:17:41;21.00;99.90
13389;DHT22;6764;53.250;10.410;2022-08-19T06:20:11;21.10;99.90
13389;DHT22;6764;53.250;10.410;2022-08-19T06:22:43;21.00;99.90
13389;DHT22;6764;53.250;10.410;2022-08-19T06:25:10;21.00;99.90
13389;DHT22;6764;53.250;10.410;2022-08-19T06:27:36;21.00;99.90
13389;DHT22;6764;53.250;10.410;2022-08-19T06:30:03;21.10;99.90
13389;DHT22;6764;53.250;10.410;2022-08-19T06:32:29;21.20;99.90
13389;DHT22;6764;53.250;10.410;2022-08-19T06:34:55;21.20;99.90
13389;DHT22;6764;53.250;10.410;2022-08-19T06:37:21;21.20;99.90
13389;DHT22;6764;53.250;10.410;2022-08-19T06:39:48;21.20;99.90
13389;DHT22;6764;53.250;10.410;2022-08-19T06:42:14;21.30;99.90
13389;DHT22;6764;53.250;10.410;2022-08-19T06:44:42;21.20;99.90
13389;DHT22;6764;53.250;10.410;2022-08-19T06:47:10;21.00;99.90
13389;DHT22;6764;53.250;10.410;2022-08-19T06:49:36;20.90;99.90
13389;DHT22;6764;53.250;10.410;2022-08-19T06:52:03;20.90;99.90
13389;DHT22;6764;53.250;10.410;2022-08-19T06:54:29;20.80;99.90
13389;DHT22;6764;53.250;10.410;2022-08-19T06:56:55;20.80;99.90
13389;DHT22;6764;53.250;10.410;2022-08-19T06:59:24;20.80;99.90
13389;DHT22;6764;53.250;10.410;2022-08-19T07:01:55;20.80;99.90
13389;DHT22;6764;53.250;10.410;2022-08-19T07:04:24;20.90;99.90
13389;DHT22;6764;53.250;10.410;2022-08-19T07:06:56;20.90;99.90
13389;DHT22;6764;53.250;10.410;2022-08-19T07:09:22;20.90;99.90
13389;DHT22;6764;53.250;10.410;2022-08-19T07:11:50;20.90;99.90
13389;DHT22;6764;53.250;10.410;2022-08-19T07:14:20;20.90;99.90
13389;DHT22;6764;53.250;10.410;2022-08-19T07:16:49;20.90;99.90
13389;DHT22;6764;53.250;10.410;2022-08-19T07:19:16;20.80;99.90
13389;DHT22;6764;53.250;10.410;2022-08-19T07:21:42;20.80;99.90
13389;DHT22;6764;53.250;10.410;2022-08-19T07:24:08;20.70;99.90
13389;DHT22;6764;53.250;10.410;2022-08-19T07:26:40;20.70;99.90
13389;DHT22;6764;53.250;10.410;2022-08-19T07:29:06;20.80;99.90
13389;DHT22;6764;53.250;10.410;2022-08-19T07:31:32;20.80;99.90
13389;DHT22;6764;53.250;10.410;2022-08-19T07:34:06;20.80;99.90
13389;DHT22;6764;53.250;10.410;2022-08-19T07:36:35;20.90;99.90
13389;DHT22;6764;53.250;10.410;2022-08-19T07:39:06;20.90;99.90
13389;DHT22;6764;53.250;10.410;2022-08-19T07:41:32;20.90;99.90
13389;DHT22;6764;53.250;10.410;2022-08-19T07:43:59;21.00;99.90
13389;DHT22;6764;53.250;10.410;2022-08-19T07:46:32;21.00;99.90
13389;DHT22;6764;53.250;10.410;2022-08-19T07:48:58;21.10;99.90
13389;DHT22;6764;53.250;10.410;2022-08-19T07:51:23;21.00;99.90
13389;DHT22;6764;53.250;10.410;2022-08-19T07:53:49;20.90;99.90
13389;DHT22;6764;53.250;10.410;2022-08-19T07:56:18;20.90;99.90
13389;DHT22;6764;53.250;10.410;2022-08-19T07:58:45;20.90;99.90
13389;DHT22;6764;53.250;10.410;2022-08-19T08:01:15;20.90;99.90
13389;DHT22;6764;53.250;10.410;2022-08-19T08:03:42;20.90;99.90
13389;DHT22;6764;53.250;10.410;2022-08-19T08:06:26;20.80;99.90
13389;DHT22;6764;53.250;10.410;2022-08-19T08:09:12;20.80;99.90
13389;DHT22;6764;53.250;10.410;2022-08-19T08:11:44;20.90;99.90
13389;DHT22;6764;53.250;10.410;2022-08-19T08:14:17;20.90;99.90
13389;DHT22;6764;53.250;10.410;2022-08-19T08:16:44;20.90;99.90
13389;DHT22;6764;53.250;10.410;2022-08-19T08:19:12;20.90;99.90
13389;DHT22;6764;53.250;10.410;2022-08-19T08:21:40;21.00;99.90
13389;DHT22;6764;53.250;10.410;2022-08-19T08:24:06;21.00;99.90
13389;DHT22;6764;53.250;10.410;2022-08-19T08:26:32;21.00;99.90
13389;DHT22;6764;53.250;10.410;2022-08-19T08:28:58;21.00;99.90
13389;DHT22;6764;53.250;10.410;2022-08-19T08:31:23;21.00;99.90
13389;DHT22;6764;53.250;10.410;2022-08-19T08:33:49;21.00;99.90
13389;DHT22;6764;53.250;10.410;2022-08-19T08:36:15;21.00;99.90
13389;DHT22;6764;53.250;10.410;2022-08-19T08:38:42;21.00;99.90
13389;DHT22;6764;53.250;10.410;2022-08-19T08:43:58;20.90;99.90
13389;DHT22;6764;53.250;10.410;2022-08-19T08:46:41;20.80;99.90
13389;DHT22;6764;53.250;10.410;2022-08-19T08:52:04;20.80;99.90
13389;DHT22;6764;53.250;10.410;2022-08-19T08:54:43;20.80;99.90
13389;DHT22;6764;53.250;10.410;2022-08-19T08:57:30;20.80;99.90
13389;DHT22;6764;53.250;10.410;2022-08-19T08:59:59;20.80;99.90
13389;DHT22;6764;53.250;10.410;2022-08-19T09:02:26;20.80;99.90
13389;DHT22;6764;53.250;10.410;2022-08-19T09:04:51;20.80;99.90
13389;DHT22;6764;53.250;10.410;2022-08-19T09:10:28;20.80;99.90
13389;DHT22;6764;53.250;10.410;2022-08-19T09:13:15;20.90;99.90
13389;DHT22;6764;53.250;10.410;2022-08-19T09:15:47;20.80;99.90
13389;DHT22;6764;53.250;10.410;2022-08-19T09:18:15;20.80;99.90
13389;DHT22;6764;53.250;10.410;2022-08-19T09:20:42;20.80;99.90
13389;DHT22;6764;53.250;10.410;2022-08-19T09:23:08;20.90;99.90
13389;DHT22;6764;53.250;10.410;2022-08-19T09:25:34;20.90;99.90
13389;DHT22;6764;53.250;10.410;2022-08-19T09:28:01;20.90;99.90
13389;DHT22;6764;53.250;10.410;2022-08-19T09:30:33;20.80;99.90
13389;DHT22;6764;53.250;10.410;2022-08-19T09:32:59;20.90;99.90
13389;DHT22;6764;53.250;10.410;2022-08-19T09:35:29;20.80;99.90
13389;DHT22;6764;53.250;10.410;2022-08-19T09:37:55;20.90;99.90
13389;DHT22;6764;53.250;10.410;2022-08-19T09:40:22;21.00;99.90
13389;DHT22;6764;53.250;10.410;2022-08-19T09:42:48;21.00;99.90
13389;DHT22;6764;53.250;10.410;2022-08-19T09:45:15;21.10;99.90
13389;DHT22;6764;53.250;10.410;2022-08-19T09:47:42;21.10;99.90
13389;DHT22;6764;53.250;10.410;2022-08-19T09:50:10;21.10;99.90
13389;DHT22;6764;53.250;10.410;2022-08-19T09:52:37;21.20;99.90
13389;DHT22;6764;53.250;10.410;2022-08-19T09:55:07;21.20;99.90
13389;DHT22;6764;53.250;10.410;2022-08-19T09:57:33;21.30;99.90
13389;DHT22;6764;53.250;10.410;2022-08-19T09:59:59;21.30;99.90
13389;DHT22;6764;53.250;10.410;2022-08-19T10:02:25;21.30;99.90
13389;DHT22;6764;53.250;10.410;2022-08-19T10:04:51;21.40;99.90
13389;DHT22;6764;53.250;10.410;2022-08-19T10:07:36;21.50;99.90
13389;DHT22;6764;53.250;10.410;2022-08-19T10:10:05;21.50;99.90
13389;DHT22;6764;53.250;10.410;2022-08-19T10:12:32;21.50;99.90
13389;DHT22;6764;53.250;10.410;2022-08-19T10:14:59;21.60;99.90
13389;DHT22;6764;53.250;10.410;2022-08-19T10:17:25;21.50;99.90
13389;DHT22;6764;53.250;10.410;2022-08-19T10:19:51;21.60;99.90
13389;DHT22;6764;53.250;10.410;2022-08-19T10:22:17;21.60;99.90
13389;DHT22;6764;53.250;10.410;2022-08-19T10:24:45;21.60;99.90
13389;DHT22;6764;53.250;10.410;2022-08-19T10:27:11;21.70;99.90
13389;DHT22;6764;53.250;10.410;2022-08-19T10:29:38;21.70;99.90
13389;DHT22;6764;53.250;10.410;2022-08-19T10:32:06;21.60;99.90
13389;DHT22;6764;53.250;10.410;2022-08-19T10:34:34;21.50;99.90
13389;DHT22;6764;53.250;10.410;2022-08-19T10:37:00;21.50;99.90
13389;DHT22;6764;53.250;10.410;2022-08-19T10:39:27;21.60;99.90
13389;DHT22;6764;53.250;10.410;2022-08-19T10:41:55;21.70;99.90
13389;DHT22;6764;53.250;10.410;2022-08-19T10:44:21;21.80;99.90
13389;DHT22;6764;53.250;10.410;2022-08-19T10:46:48;22.00;99.90
13389;DHT22;6764;53.250;10.410;2022-08-19T10:49:14;22.00;99.90
13389;DHT22;6764;53.250;10.410;2022-08-19T10:51:40;22.00;99.90
13389;DHT22;6764;53.250;10.410;2022-08-19T10:54:26;22.00;99.90
13389;DHT22;6764;53.250;10.410;2022-08-19T10:57:12;21.90;99.90
13389;DHT22;6764;53.250;10.410;2022-08-19T10:59:38;22.00;99.90
13389;DHT22;6764;53.250;10.410;2022-08-19T11:02:06;22.10;99.90
13389;DHT22;6764;53.250;10.410;2022-08-19T11:04:32;22.20;99.90
13389;DHT22;6764;53.250;10.410;2022-08-19T11:06:58;22.20;99.90
13389;DHT22;6764;53.250;10.410;2022-08-19T11:09:25;22.30;99.90
13389;DHT22;6764;53.250;10.410;2022-08-19T11:11:53;22.30;99.90
13389;DHT22;6764;53.250;10.410;2022-08-19T11:14:20;22.40;99.90
13389;DHT22;6764;53.250;10.410;2022-08-19T11:16:47;22.40;99.90
13389;DHT22;6764;53.250;10.410;2022-08-19T11:19:14;22.40;99.90
13389;DHT22;6764;53.250;10.410;2022-08-19T11:21:44;22.50;99.90
13389;DHT22;6764;53.250;10.410;2022-08-19T11:24:13;22.50;99.90
13389;DHT22;6764;53.250;10.410;2022-08-19T11:26:40;22.50;99.90
13389;DHT22;6764;53.250;10.410;2022-08-19T11:29:07;22.60;99.90
13389;DHT22;6764;53.250;10.410;2022-08-19T11:31:37;22.50;99.90
13389;DHT22;6764;53.250;10.410;2022-08-19T11:34:06;22.60;99.90
13389;DHT22;6764;53.250;10.410;2022-08-19T11:36:33;22.70;99.90
13389;DHT22;6764;53.250;10.410;2022-08-19T11:39:00;22.90;99.90
13389;DHT22;6764;53.250;10.410;2022-08-19T11:41:26;23.00;99.90
13389;DHT22;6764;53.250;10.410;2022-08-19T11:43:52;23.20;99.90
13389;DHT22;6764;53.250;10.410;2022-08-19T11:46:22;23.40;99.90
13389;DHT22;6764;53.250;10.410;2022-08-19T11:48:48;23.40;99.90
13389;DHT22;6764;53.250;10.410;2022-08-19T11:51:18;23.40;99.90
13389;DHT22;6764;53.250;10.410;2022-08-19T11:53:44;23.40;99.90
13389;DHT22;6764;53.250;10.410;2022-08-19T11:56:11;23.40;99.90
13389;DHT22;6764;53.250;10.410;2022-08-19T11:58:38;23.40;99.90
13389;DHT22;6764;53.250;10.410;2022-08-19T12:01:09;23.50;99.90
13389;DHT22;6764;53.250;10.410;2022-08-19T12:03:36;23.50;99.90
13389;DHT22;6764;53.250;10.410;2022-08-19T12:06:11;23.60;99.90
13389;DHT22;6764;53.250;10.410;2022-08-19T12:08:39;23.50;99.90
13389;DHT22;6764;53.250;10.410;2022-08-19T12:11:05;23.40;99.90
13389;DHT22;6764;53.250;10.410;2022-08-19T12:13:34;23.50;99.90
13389;DHT22;6764;53.250;10.410;2022-08-19T12:16:00;23.50;99.90
13389;DHT22;6764;53.250;10.410;2022-08-19T12:18:26;23.50;99.90
13389;DHT22;6764;53.250;10.410;2022-08-19T12:20:53;23.60;99.90
13389;DHT22;6764;53.250;10.410;2022-08-19T12:23:20;23.50;99.90
13389;DHT22;6764;53.250;10.410;2022-08-19T12:25:47;23.40;99.90
13389;DHT22;6764;53.250;10.410;2022-08-19T12:28:20;23.30;99.90
13389;DHT22;6764;53.250;10.410;2022-08-19T12:30:47;23.20;99.90
13389;DHT22;6764;53.250;10.410;2022-08-19T12:33:13;23.20;99.90
13389;DHT22;6764;53.250;10.410;2022-08-19T12:35:41;23.30;99.90
13389;DHT22;6764;53.250;10.410;2022-08-19T12:38:08;23.10;99.90
13389;DHT22;6764;53.250;10.410;2022-08-19T12:40:33;23.10;99.90
13389;DHT22;6764;53.250;10.410;2022-08-19T12:42:59;23.20;99.90
13389;DHT22;6764;53.250;10.410;2022-08-19T12:45:25;23.20;99.90
13389;DHT22;6764;53.250;10.410;2022-08-19T12:47:50;23.30;99.90
13389;DHT22;6764;53.250;10.410;2022-08-19T12:50:18;23.20;99.90
13389;DHT22;6764;53.250;10.410;2022-08-19T12:52:45;23.30;99.90
13389;DHT22;6764;53.250;10.410;2022-08-19T12:55:10;23.20;99.90
13389;DHT22;6764;53.250;10.410;2022-08-19T12:57:37;23.10;99.90
13389;DHT22;6764;53.250;10.410;2022-08-19T13:00:07;23.10;99.90
13389;DHT22;6764;53.250;10.410;2022-08-19T13:02:36;23.30;99.90
13389;DHT22;6764;53.250;10.410;2022-08-19T13:05:03;23.30;99.90
13389;DHT22;6764;53.250;10.410;2022-08-19T13:07:29;23.40;99.90
13389;DHT22;6764;53.250;10.410;2022-08-19T13:09:55;23.50;99.90
13389;DHT22;6764;53.250;10.410;2022-08-19T13:12:21;23.60;99.90
13389;DHT22;6764;53.250;10.410;2022-08-19T13:14:46;23.60;99.90
13389;DHT22;6764;53.250;10.410;2022-08-19T13:17:16;23.90;99.90
13389;DHT22;6764;53.250;10.410;2022-08-19T13:19:42;24.00;99.90
13389;DHT22;6764;53.250;10.410;2022-08-19T13:22:07;24.10;99.90
13389;DHT22;6764;53.250;10.410;2022-08-19T13:24:33;24.40;99.90
13389;DHT22;6764;53.250;10.410;2022-08-19T13:27:00;24.30;99.90
13389;DHT22;6764;53.250;10.410;2022-08-19T13:29:25;24.40;99.90
13389;DHT22;6764;53.250;10.410;2022-08-19T13:32:09;24.30;99.90
13389;DHT22;6764;53.250;10.410;2022-08-19T13:34:53;24.40;99.90
13389;DHT22;6764;53.250;10.410;2022-08-19T13:37:19;24.60;99.90
13389;DHT22;6764;53.250;10.410;2022-08-19T13:40:05;24.70;99.90
13389;DHT22;6764;53.250;10.410;2022-08-19T13:42:31;24.70;99.90
13389;DHT22;6764;53.250;10.410;2022-08-19T13:44:57;24.80;99.90
13389;DHT22;6764;53.250;10.410;2022-08-19T13:47:23;24.70;99.90
13389;DHT22;6764;53.250;10.410;2022-08-19T13:49:49;24.80;99.90
13389;DHT22;6764;53.250;10.410;2022-08-19T13:52:15;25.00;99.90
13389;DHT22;6764;53.250;10.410;2022-08-19T13:54:41;25.10;99.90
13389;DHT22;6764;53.250;10.410;2022-08-19T13:57:06;25.20;99.90
13389;DHT22;6764;53.250;10.410;2022-08-19T13:59:32;25.20;99.90
13389;DHT22;6764;53.250;10.410;2022-08-19T14:01:59;25.10;99.90
13389;DHT22;6764;53.250;10.410;2022-08-19T14:04:25;25.40;99.90
13389;DHT22;6764;53.250;10.410;2022-08-19T14:06:51;25.60;99.90
13389;DHT22;6764;53.250;10.410;2022-08-19T14:09:16;25.70;99.90
13389;DHT22;6764;53.250;10.410;2022-08-19T14:11:42;25.80;99.90
13389;DHT22;6764;53.250;10.410;2022-08-19T14:14:08;25.90;99.90
13389;DHT22;6764;53.250;10.410;2022-08-19T14:16:33;25.80;99.90
13389;DHT22;6764;53.250;10.410;2022-08-19T14:18:59;25.60;99.90
13389;DHT22;6764;53.250;10.410;2022-08-19T14:21:25;25.60;99.90
13389;DHT22;6764;53.250;10.410;2022-08-19T14:23:51;25.60;99.90
13389;DHT22;6764;53.250;10.410;2022-08-19T14:26:19;25.50;99.90
13389;DHT22;6764;53.250;10.410;2022-08-19T14:28:45;25.30;99.90
13389;DHT22;6764;53.250;10.410;2022-08-19T14:31:12;25.30;99.90
13389;DHT22;6764;53.250;10.410;2022-08-19T14:33:40;25.40;99.90
13389;DHT22;6764;53.250;10.410;2022-08-19T14:36:05;25.40;99.90
13389;DHT22;6764;53.250;10.410;2022-08-19T14:38:31;25.50;99.90
13389;DHT22;6764;53.250;10.410;2022-08-19T14:41:12;25.50;99.90
13389;DHT22;6764;53.250;10.410;2022-08-19T14:43:38;25.60;99.90
13389;DHT22;6764;53.250;10.410;2022-08-19T14:46:04;25.70;99.90
13389;DHT22;6764;53.250;10.410;2022-08-19T14:48:30;25.80;99.90
13389;DHT22;6764;53.250;10.410;2022-08-19T14:50:56;25.80;99.90
13389;DHT22;6764;53.250;10.410;2022-08-19T14:53:22;25.90;99.90
13389;DHT22;6764;53.250;10.410;2022-08-19T14:55:47;25.90;99.90
13389;DHT22;6764;53.250;10.410;2022-08-19T14:58:13;25.90;99.90
13389;DHT22;6764;53.250;10.410;2022-08-19T15:00:40;25.70;99.90
13389;DHT22;6764;53.250;10.410;2022-08-19T15:03:05;25.60;99.90
13389;DHT22;6764;53.250;10.410;2022-08-19T15:05:31;25.60;99.90
13389;DHT22;6764;53.250;10.410;2022-08-19T15:10:27;25.40;99.90
13389;DHT22;6764;53.250;10.410;2022-08-19T15:12:53;25.40;99.90
13389;DHT22;6764;53.250;10.410;2022-08-19T15:15:19;25.40;99.90
13389;DHT22;6764;53.250;10.410;2022-08-19T15:17:47;25.20;99.90
13389;DHT22;6764;53.250;10.410;2022-08-19T15:20:18;25.20;99.90
13389;DHT22;6764;53.250;10.410;2022-08-19T15:22:45;25.10;99.90
13389;DHT22;6764;53.250;10.410;2022-08-19T15:25:13;25.10;99.90
13389;DHT22;6764;53.250;10.410;2022-08-19T15:27:38;25.10;99.90
13389;DHT22;6764;53.250;10.410;2022-08-19T15:30:05;25.20;99.90
13389;DHT22;6764;53.250;10.410;2022-08-19T15:32:31;25.20;99.90
13389;DHT22;6764;53.250;10.410;2022-08-19T15:34:57;25.20;99.90
13389;DHT22;6764;53.250;10.410;2022-08-19T15:37:23;25.30;99.90
13389;DHT22;6764;53.250;10.410;2022-08-19T15:39:49;25.30;99.90
13389;DHT22;6764;53.250;10.410;2022-08-19T15:42:15;25.30;99.90
13389;DHT22;6764;53.250;10.410;2022-08-19T15:44:40;25.30;99.90